SVA1558 OENN-OEJN
Flight info
| Callsign | SVA1558 |
|---|---|
| Flight time | N/A |
| Altitude | 35000 |
| Route | DARAX W600 WEJ T510 RBG V172 NOMDA |
| Aircraft | A320/M-SDE3FGHIRWY/LB1 |
Departure
| Time | N/A |
|---|---|
| Airport | Neom Bay Airport (OENN) |
Arrival
| Time | 2026-04-28 17:21 |
|---|---|
| Airport | King Abdulaziz International Airport (OEJN) |
| Time | Latitude | Longitude | Altitude | Speed | Heading |
|---|---|---|---|---|---|
| 2026-04-28 16:52 | 22.86239 | 39.07394 | 34888 ft | 474 kts | 171° |
| 2026-04-28 16:52 | 22.79960 | 39.09363 | 34012 ft | 467 kts | 177° |
| 2026-04-28 16:52 | 22.76767 | 39.09811 | 32488 ft | 462 kts | 185° |
| 2026-04-28 16:53 | 22.73544 | 39.09884 | 30796 ft | 468 kts | 187° |
| 2026-04-28 16:53 | 22.70260 | 39.09938 | 28957 ft | 477 kts | 186° |
| 2026-04-28 16:53 | 22.66944 | 39.10018 | 27754 ft | 471 kts | 185° |
| 2026-04-28 16:53 | 22.63769 | 39.10133 | 27492 ft | 443 kts | 185° |
| 2026-04-28 16:54 | 22.60783 | 39.10266 | 27357 ft | 415 kts | 185° |
| 2026-04-28 16:54 | 22.57985 | 39.10429 | 27091 ft | 396 kts | 180° |
| 2026-04-28 16:54 | 22.55336 | 39.11224 | 26759 ft | 399 kts | 162° |
| 2026-04-28 16:54 | 22.53770 | 39.12226 | 26603 ft | 407 kts | 149° |
| 2026-04-28 16:55 | 22.51362 | 39.15348 | 26284 ft | 423 kts | 119° |
| 2026-04-28 16:55 | 22.50537 | 39.18429 | 26049 ft | 431 kts | 100° |
| 2026-04-28 16:55 | 22.50098 | 39.21580 | 25831 ft | 427 kts | 107° |
| 2026-04-28 16:55 | 22.49191 | 39.24607 | 25468 ft | 422 kts | 115° |
| 2026-04-28 16:56 | 22.48141 | 39.27569 | 25000 ft | 420 kts | 116° |
| 2026-04-28 16:56 | 22.47064 | 39.30478 | 24663 ft | 413 kts | 121° |
| 2026-04-28 16:56 | 22.45662 | 39.33133 | 24277 ft | 402 kts | 131° |
| 2026-04-28 16:56 | 22.43762 | 39.35225 | 23916 ft | 380 kts | 154° |
| 2026-04-28 16:57 | 22.41436 | 39.36371 | 23545 ft | 359 kts | 174° |
| 2026-04-28 16:57 | 22.39035 | 39.36590 | 22950 ft | 339 kts | 192° |
| 2026-04-28 16:57 | 22.36815 | 39.35975 | 22161 ft | 325 kts | 210° |
| 2026-04-28 16:57 | 22.34971 | 39.34648 | 21366 ft | 317 kts | 224° |
| 2026-04-28 16:58 | 22.33312 | 39.33083 | 20584 ft | 316 kts | 223° |
| 2026-04-28 16:58 | 22.31665 | 39.31532 | 20155 ft | 314 kts | 223° |
| 2026-04-28 16:58 | 22.30022 | 39.29987 | 19757 ft | 313 kts | 223° |
| 2026-04-28 16:58 | 22.28379 | 39.28440 | 19365 ft | 313 kts | 223° |
| 2026-04-28 16:59 | 22.26734 | 39.26891 | 18972 ft | 314 kts | 222° |
| 2026-04-28 16:59 | 22.25112 | 39.25366 | 18583 ft | 314 kts | 222° |
| 2026-04-28 16:59 | 22.23467 | 39.23820 | 18191 ft | 313 kts | 222° |
| 2026-04-28 16:59 | 22.21821 | 39.22275 | 17752 ft | 313 kts | 222° |
| 2026-04-28 17:00 | 22.20181 | 39.20737 | 17352 ft | 312 kts | 222° |
| 2026-04-28 17:00 | 22.18549 | 39.19205 | 16968 ft | 311 kts | 222° |
| 2026-04-28 17:00 | 22.16898 | 39.17657 | 16572 ft | 310 kts | 222° |
| 2026-04-28 17:00 | 22.15275 | 39.16139 | 16186 ft | 309 kts | 222° |
| 2026-04-28 17:01 | 22.13678 | 39.14641 | 15832 ft | 307 kts | 222° |
| 2026-04-28 17:01 | 22.12052 | 39.13151 | 15463 ft | 307 kts | 216° |
| 2026-04-28 17:01 | 22.10156 | 39.12103 | 15087 ft | 310 kts | 199° |
| 2026-04-28 17:01 | 22.08035 | 39.11785 | 14829 ft | 310 kts | 181° |
| 2026-04-28 17:02 | 22.05908 | 39.12225 | 14454 ft | 316 kts | 163° |
| 2026-04-28 17:02 | 22.04519 | 39.12779 | 14183 ft | 314 kts | 163° |
| 2026-04-28 17:02 | 22.01810 | 39.13861 | 13342 ft | 312 kts | 163° |
| 2026-04-28 17:02 | 21.99788 | 39.14667 | 12707 ft | 309 kts | 163° |
| 2026-04-28 17:03 | 21.95801 | 39.16245 | 11461 ft | 302 kts | 163° |
| 2026-04-28 17:03 | 21.93809 | 39.17033 | 10818 ft | 299 kts | 162° |
| 2026-04-28 17:03 | 21.91870 | 39.17800 | 10266 ft | 294 kts | 162° |
| 2026-04-28 17:04 | 21.88119 | 39.19283 | 9324 ft | 280 kts | 163° |
| 2026-04-28 17:04 | 21.86370 | 39.19980 | 9252 ft | 257 kts | 163° |
| 2026-04-28 17:05 | 21.83142 | 39.21266 | 9098 ft | 235 kts | 163° |
| 2026-04-28 17:05 | 21.81650 | 39.21857 | 9001 ft | 228 kts | 165° |
| 2026-04-28 17:05 | 21.80158 | 39.22442 | 8686 ft | 230 kts | 164° |
| 2026-04-28 17:06 | 21.77118 | 39.23623 | 8007 ft | 233 kts | 163° |
| 2026-04-28 17:06 | 21.75588 | 39.24222 | 7683 ft | 235 kts | 162° |
| 2026-04-28 17:06 | 21.72478 | 39.25437 | 7028 ft | 240 kts | 162° |
| 2026-04-28 17:07 | 21.70900 | 39.26055 | 6698 ft | 242 kts | 162° |
| 2026-04-28 17:07 | 21.69311 | 39.26680 | 6363 ft | 244 kts | 163° |
| 2026-04-28 17:07 | 21.67712 | 39.27310 | 6016 ft | 245 kts | 164° |
| 2026-04-28 17:07 | 21.66114 | 39.27943 | 5669 ft | 244 kts | 163° |
| 2026-04-28 17:08 | 21.64541 | 39.28570 | 5331 ft | 238 kts | 163° |
| 2026-04-28 17:08 | 21.63013 | 39.29179 | 5010 ft | 232 kts | 163° |
| 2026-04-28 17:08 | 21.61518 | 39.29770 | 4699 ft | 227 kts | 163° |
| 2026-04-28 17:08 | 21.60044 | 39.30346 | 4377 ft | 224 kts | 163° |
| 2026-04-28 17:09 | 21.58583 | 39.30915 | 4072 ft | 224 kts | 163° |
| 2026-04-28 17:09 | 21.57091 | 39.31496 | 3760 ft | 228 kts | 162° |
| 2026-04-28 17:09 | 21.55598 | 39.32078 | 3443 ft | 232 kts | 163° |
| 2026-04-28 17:09 | 21.54068 | 39.32675 | 3122 ft | 236 kts | 164° |
| 2026-04-28 17:10 | 21.52536 | 39.33278 | 3005 ft | 233 kts | 162° |
| 2026-04-28 17:10 | 21.50999 | 39.33884 | 3013 ft | 236 kts | 161° |
| 2026-04-28 17:10 | 21.49457 | 39.34488 | 3014 ft | 235 kts | 163° |
| 2026-04-28 17:10 | 21.47930 | 39.35086 | 3014 ft | 233 kts | 162° |
| 2026-04-28 17:11 | 21.46413 | 39.35682 | 3018 ft | 231 kts | 164° |
| 2026-04-28 17:11 | 21.44901 | 39.36274 | 3012 ft | 231 kts | 164° |
| 2026-04-28 17:11 | 21.43389 | 39.36868 | 3016 ft | 231 kts | 164° |
| 2026-04-28 17:11 | 21.41858 | 39.37403 | 3009 ft | 229 kts | 175° |
| 2026-04-28 17:12 | 21.40302 | 39.37310 | 3010 ft | 220 kts | 201° |
| 2026-04-28 17:12 | 21.39047 | 39.36555 | 3008 ft | 199 kts | 226° |
| 2026-04-28 17:12 | 21.38270 | 39.35418 | 3030 ft | 180 kts | 246° |
| 2026-04-28 17:12 | 21.37974 | 39.34175 | 3020 ft | 171 kts | 265° |
| 2026-04-28 17:13 | 21.38095 | 39.32939 | 3010 ft | 165 kts | 284° |
| 2026-04-28 17:13 | 21.38602 | 39.31835 | 3016 ft | 168 kts | 304° |
| 2026-04-28 17:13 | 21.39317 | 39.30825 | 3021 ft | 174 kts | 304° |
| 2026-04-28 17:13 | 21.40047 | 39.29778 | 3012 ft | 176 kts | 303° |
| 2026-04-28 17:14 | 21.40819 | 39.28755 | 3002 ft | 178 kts | 313° |
| 2026-04-28 17:14 | 21.41835 | 39.27972 | 3019 ft | 181 kts | 328° |
| 2026-04-28 17:14 | 21.42965 | 39.27423 | 3007 ft | 178 kts | 335° |
| 2026-04-28 17:14 | 21.44116 | 39.26936 | 3010 ft | 178 kts | 336° |
| 2026-04-28 17:15 | 21.45276 | 39.26469 | 3007 ft | 177 kts | 336° |
| 2026-04-28 17:15 | 21.46427 | 39.26013 | 3003 ft | 179 kts | 337° |
| 2026-04-28 17:15 | 21.47599 | 39.25551 | 3009 ft | 178 kts | 336° |
| 2026-04-28 17:15 | 21.48763 | 39.25094 | 3008 ft | 177 kts | 335° |
| 2026-04-28 17:16 | 21.49921 | 39.24638 | 3012 ft | 177 kts | 335° |
| 2026-04-28 17:16 | 21.51096 | 39.24176 | 3010 ft | 179 kts | 335° |
| 2026-04-28 17:16 | 21.52244 | 39.23725 | 2896 ft | 178 kts | 338° |
| 2026-04-28 17:16 | 21.53398 | 39.23271 | 2712 ft | 174 kts | 338° |
| 2026-04-28 17:17 | 21.54518 | 39.22830 | 2505 ft | 169 kts | 338° |
| 2026-04-28 17:17 | 21.55605 | 39.22402 | 2292 ft | 164 kts | 340° |
| 2026-04-28 17:17 | 21.56321 | 39.22120 | 2161 ft | 161 kts | 339° |
| 2026-04-28 17:17 | 21.57339 | 39.21720 | 1952 ft | 149 kts | 339° |
| 2026-04-28 17:18 | 21.58263 | 39.21357 | 1782 ft | 137 kts | 340° |
| 2026-04-28 17:18 | 21.59167 | 39.21000 | 1594 ft | 137 kts | 341° |
| 2026-04-28 17:18 | 21.60036 | 39.20658 | 1415 ft | 132 kts | 341° |
| 2026-04-28 17:18 | 21.60904 | 39.20317 | 1251 ft | 132 kts | 342° |
| 2026-04-28 17:19 | 21.61763 | 39.19978 | 1075 ft | 133 kts | 339° |
| 2026-04-28 17:19 | 21.62624 | 39.19639 | 920 ft | 131 kts | 339° |
| 2026-04-28 17:19 | 21.63484 | 39.19300 | 751 ft | 134 kts | 341° |
| 2026-04-28 17:19 | 21.64350 | 39.18959 | 588 ft | 130 kts | 340° |
| 2026-04-28 17:20 | 21.65202 | 39.18622 | 404 ft | 132 kts | 340° |
| 2026-04-28 17:20 | 21.66055 | 39.18280 | 242 ft | 130 kts | 340° |
| 2026-04-28 17:20 | 21.66922 | 39.17937 | 62 ft | 131 kts | 341° |
| 2026-04-28 17:20 | 21.67691 | 39.17637 | 33 ft | 103 kts | 340° |
| 2026-04-28 17:21 | 21.68197 | 39.17440 | 28 ft | 52 kts | 339° |
| 2026-04-28 17:21 | 21.68333 | 39.17331 | 27 ft | 2 kts | 305° |
| 2026-04-28 17:21 | 21.68353 | 39.17301 | 26 ft | 7 kts | 305° |
| 2026-04-28 17:22 | 21.68399 | 39.17232 | 27 ft | 0 kts | 306° |
| 2026-04-28 17:23 | 21.68401 | 39.17229 | 27 ft | 4 kts | 306° |
| 2026-04-28 17:23 | 21.68450 | 39.17159 | 27 ft | 14 kts | 308° |
| 2026-04-28 17:23 | 21.68504 | 39.17072 | 27 ft | 12 kts | 289° |
| 2026-04-28 17:23 | 21.68465 | 39.17005 | 28 ft | 11 kts | 193° |
| 2026-04-28 17:24 | 21.68402 | 39.17027 | 28 ft | 9 kts | 159° |
| 2026-04-28 17:24 | 21.68349 | 39.17047 | 28 ft | 7 kts | 160° |
| 2026-04-28 17:24 | 21.68307 | 39.17064 | 29 ft | 6 kts | 160° |
| 2026-04-28 17:24 | 21.68270 | 39.17077 | 29 ft | 6 kts | 161° |
| 2026-04-28 17:25 | 21.68198 | 39.17106 | 29 ft | 21 kts | 159° |
| 2026-04-28 17:25 | 21.67946 | 39.17205 | 30 ft | 18 kts | 160° |
| 2026-04-28 17:25 | 21.67838 | 39.17248 | 31 ft | 16 kts | 160° |
| 2026-04-28 17:26 | 21.67741 | 39.17286 | 31 ft | 14 kts | 159° |
| 2026-04-28 17:26 | 21.67657 | 39.17321 | 32 ft | 12 kts | 159° |
| 2026-04-28 17:26 | 21.67579 | 39.17352 | 32 ft | 15 kts | 160° |
| 2026-04-28 17:26 | 21.67439 | 39.17408 | 33 ft | 22 kts | 160° |
| 2026-04-28 17:27 | 21.67302 | 39.17459 | 33 ft | 20 kts | 160° |
| 2026-04-28 17:27 | 21.67179 | 39.17510 | 33 ft | 18 kts | 160° |
| 2026-04-28 17:27 | 21.67066 | 39.17553 | 33 ft | 16 kts | 160° |
| 2026-04-28 17:27 | 21.66987 | 39.17581 | 34 ft | 7 kts | 170° |
| 2026-04-28 17:28 | 21.66956 | 39.17556 | 32 ft | 5 kts | 246° |
| 2026-04-28 17:28 | 21.66914 | 39.17439 | 34 ft | 9 kts | 248° |
| 2026-04-28 17:28 | 21.66892 | 39.17380 | 33 ft | 8 kts | 248° |
| 2026-04-28 17:29 | 21.66873 | 39.17329 | 34 ft | 7 kts | 249° |
| 2026-04-28 17:29 | 21.66846 | 39.17297 | 34 ft | 5 kts | 200° |
| 2026-04-28 17:29 | 21.66814 | 39.17297 | 35 ft | 6 kts | 167° |
| 2026-04-28 17:30 | 21.66724 | 39.17333 | 35 ft | 6 kts | 159° |
| 2026-04-28 17:30 | 21.66635 | 39.17367 | 35 ft | 9 kts | 162° |
| 2026-04-28 17:30 | 21.66580 | 39.17389 | 36 ft | 7 kts | 158° |
| 2026-04-28 17:31 | 21.66546 | 39.17376 | 36 ft | 5 kts | 236° |
| 2026-04-28 17:31 | 21.66514 | 39.17328 | 36 ft | 3 kts | 233° |
| 2026-04-28 17:32 | 21.66501 | 39.17310 | 36 ft | 0 kts | 233° |